sensor_id;sensor_type;location;lat;lon;timestamp;P1;P2;P0
30342;PMS5003;17145;49.902;8.680;2023-03-01T00:00:22;3;3;
30342;PMS5003;17145;49.902;8.680;2023-03-01T00:02:49;2;2;
30342;PMS5003;17145;49.902;8.680;2023-03-01T00:05:17;2;2;
30342;PMS5003;17145;49.902;8.680;2023-03-01T00:07:44;3;3;
30342;PMS5003;17145;49.902;8.680;2023-03-01T00:10:11;3;3;
30342;PMS5003;17145;49.902;8.680;2023-03-01T00:12:39;2;2;
30342;PMS5003;17145;49.902;8.680;2023-03-01T00:15:08;2;2;
30342;PMS5003;17145;49.902;8.680;2023-03-01T00:17:35;3;2;
30342;PMS5003;17145;49.902;8.680;2023-03-01T00:20:04;3;3;
30342;PMS5003;17145;49.902;8.680;2023-03-01T00:22:33;6;5;
30342;PMS5003;17145;49.902;8.680;2023-03-01T00:25:00;3;3;
30342;PMS5003;17145;49.902;8.680;2023-03-01T00:27:27;2;2;
30342;PMS5003;17145;49.902;8.680;2023-03-01T00:29:55;2;2;
30342;PMS5003;17145;49.902;8.680;2023-03-01T00:32:22;2;2;
30342;PMS5003;17145;49.902;8.680;2023-03-01T00:34:50;2;1;
30342;PMS5003;17145;49.902;8.680;2023-03-01T00:37:18;1;1;
30342;PMS5003;17145;49.902;8.680;2023-03-01T00:39:45;1;1;
30342;PMS5003;17145;49.902;8.680;2023-03-01T00:42:13;3;2;
30342;PMS5003;17145;49.902;8.680;2023-03-01T00:44:40;2;2;
30342;PMS5003;17145;49.902;8.680;2023-03-01T00:47:08;3;3;
30342;PMS5003;17145;49.902;8.680;2023-03-01T00:49:35;5;2;
30342;PMS5003;17145;49.902;8.680;2023-03-01T00:52:02;3;3;
30342;PMS5003;17145;49.902;8.680;2023-03-01T00:54:30;2;2;
30342;PMS5003;17145;49.902;8.680;2023-03-01T00:56:57;2;2;
30342;PMS5003;17145;49.902;8.680;2023-03-01T00:59:25;3;3;
30342;PMS5003;17145;49.902;8.680;2023-03-01T01:01:52;2;2;
30342;PMS5003;17145;49.902;8.680;2023-03-01T01:04:20;2;2;
30342;PMS5003;17145;49.902;8.680;2023-03-01T01:06:47;2;2;
30342;PMS5003;17145;49.902;8.680;2023-03-01T01:09:15;2;2;
30342;PMS5003;17145;49.902;8.680;2023-03-01T01:11:44;2;2;
30342;PMS5003;17145;49.902;8.680;2023-03-01T01:14:13;2;2;
30342;PMS5003;17145;49.902;8.680;2023-03-01T01:16:40;1;1;
30342;PMS5003;17145;49.902;8.680;2023-03-01T01:19:09;2;2;
30342;PMS5003;17145;49.902;8.680;2023-03-01T01:21:37;1;1;
30342;PMS5003;17145;49.902;8.680;2023-03-01T01:24:04;1;1;
30342;PMS5003;17145;49.902;8.680;2023-03-01T01:26:33;2;1;
30342;PMS5003;17145;49.902;8.680;2023-03-01T01:29:01;2;2;
30342;PMS5003;17145;49.902;8.680;2023-03-01T01:31:31;2;1;
30342;PMS5003;17145;49.902;8.680;2023-03-01T01:34:00;2;1;
30342;PMS5003;17145;49.902;8.680;2023-03-01T01:36:30;1;1;
30342;PMS5003;17145;49.902;8.680;2023-03-01T01:38:58;2;1;
30342;PMS5003;17145;49.902;8.680;2023-03-01T01:41:26;1;1;
30342;PMS5003;17145;49.902;8.680;2023-03-01T01:46:37;1;1;
30342;PMS5003;17145;49.902;8.680;2023-03-01T01:49:10;1;1;
30342;PMS5003;17145;49.902;8.680;2023-03-01T01:51:47;2;2;
30342;PMS5003;17145;49.902;8.680;2023-03-01T01:54:18;1;1;
30342;PMS5003;17145;49.902;8.680;2023-03-01T01:56:52;2;2;
30342;PMS5003;17145;49.902;8.680;2023-03-01T01:59:24;1;1;
30342;PMS5003;17145;49.902;8.680;2023-03-01T02:01:53;1;1;
30342;PMS5003;17145;49.902;8.680;2023-03-01T02:04:21;2;2;
30342;PMS5003;17145;49.902;8.680;2023-03-01T02:06:51;1;1;
30342;PMS5003;17145;49.902;8.680;2023-03-01T02:09:23;2;2;
30342;PMS5003;17145;49.902;8.680;2023-03-01T02:11:52;1;1;
30342;PMS5003;17145;49.902;8.680;2023-03-01T02:14:20;1;1;
30342;PMS5003;17145;49.902;8.680;2023-03-01T02:16:48;2;2;
30342;PMS5003;17145;49.902;8.680;2023-03-01T02:19:20;3;2;
30342;PMS5003;17145;49.902;8.680;2023-03-01T02:21:58;2;2;
30342;PMS5003;17145;49.902;8.680;2023-03-01T02:24:35;1;1;
30342;PMS5003;17145;49.902;8.680;2023-03-01T02:27:12;2;1;
30342;PMS5003;17145;49.902;8.680;2023-03-01T02:29:39;2;2;
30342;PMS5003;17145;49.902;8.680;2023-03-01T02:32:07;2;1;
30342;PMS5003;17145;49.902;8.680;2023-03-01T02:34:34;1;1;
30342;PMS5003;17145;49.902;8.680;2023-03-01T02:37:03;3;2;
30342;PMS5003;17145;49.902;8.680;2023-03-01T02:39:36;1;1;
30342;PMS5003;17145;49.902;8.680;2023-03-01T02:42:10;1;1;
30342;PMS5003;17145;49.902;8.680;2023-03-01T02:44:40;1;1;
30342;PMS5003;17145;49.902;8.680;2023-03-01T02:47:08;2;1;
30342;PMS5003;17145;49.902;8.680;2023-03-01T02:49:37;2;1;
30342;PMS5003;17145;49.902;8.680;2023-03-01T02:52:07;2;2;
30342;PMS5003;17145;49.902;8.680;2023-03-01T02:54:49;1;1;
30342;PMS5003;17145;49.902;8.680;2023-03-01T02:57:21;1;1;
30342;PMS5003;17145;49.902;8.680;2023-03-01T02:59:51;1;1;
30342;PMS5003;17145;49.902;8.680;2023-03-01T03:02:21;1;1;
30342;PMS5003;17145;49.902;8.680;2023-03-01T03:04:52;1;1;
30342;PMS5003;17145;49.902;8.680;2023-03-01T03:07:19;2;2;
30342;PMS5003;17145;49.902;8.680;2023-03-01T03:09:46;1;1;
30342;PMS5003;17145;49.902;8.680;2023-03-01T03:12:14;2;1;
30342;PMS5003;17145;49.902;8.680;2023-03-01T03:14:42;2;1;
30342;PMS5003;17145;49.902;8.680;2023-03-01T03:17:09;2;2;
30342;PMS5003;17145;49.902;8.680;2023-03-01T03:19:36;1;1;
30342;PMS5003;17145;49.902;8.680;2023-03-01T03:22:04;3;2;
30342;PMS5003;17145;49.902;8.680;2023-03-01T03:24:32;1;1;
30342;PMS5003;17145;49.902;8.680;2023-03-01T03:27:00;1;1;
30342;PMS5003;17145;49.902;8.680;2023-03-01T03:29:27;1;1;
30342;PMS5003;17145;49.902;8.680;2023-03-01T03:31:55;1;1;
30342;PMS5003;17145;49.902;8.680;2023-03-01T03:34:22;2;2;
30342;PMS5003;17145;49.902;8.680;2023-03-01T03:36:52;1;1;
30342;PMS5003;17145;49.902;8.680;2023-03-01T03:39:20;2;1;
30342;PMS5003;17145;49.902;8.680;2023-03-01T03:41:47;1;1;
30342;PMS5003;17145;49.902;8.680;2023-03-01T03:44:14;1;1;
30342;PMS5003;17145;49.902;8.680;2023-03-01T03:46:42;2;2;
30342;PMS5003;17145;49.902;8.680;2023-03-01T03:49:09;1;1;
30342;PMS5003;17145;49.902;8.680;2023-03-01T03:51:36;0;0;
30342;PMS5003;17145;49.902;8.680;2023-03-01T03:54:04;3;2;
30342;PMS5003;17145;49.902;8.680;2023-03-01T03:56:31;1;1;
30342;PMS5003;17145;49.902;8.680;2023-03-01T03:58:59;1;1;
30342;PMS5003;17145;49.902;8.680;2023-03-01T04:01:26;1;1;
30342;PMS5003;17145;49.902;8.680;2023-03-01T04:03:53;1;1;
30342;PMS5003;17145;49.902;8.680;2023-03-01T04:06:21;1;1;
30342;PMS5003;17145;49.902;8.680;2023-03-01T04:08:49;1;1;
30342;PMS5003;17145;49.902;8.680;2023-03-01T04:11:16;1;1;
30342;PMS5003;17145;49.902;8.680;2023-03-01T04:13:43;1;1;
30342;PMS5003;17145;49.902;8.680;2023-03-01T04:16:11;1;1;
30342;PMS5003;17145;49.902;8.680;2023-03-01T04:18:38;2;2;
30342;PMS5003;17145;49.902;8.680;2023-03-01T04:21:06;1;1;
30342;PMS5003;17145;49.902;8.680;2023-03-01T04:23:33;1;1;
30342;PMS5003;17145;49.902;8.680;2023-03-01T04:26:01;1;1;
30342;PMS5003;17145;49.902;8.680;2023-03-01T04:28:29;2;2;
30342;PMS5003;17145;49.902;8.680;2023-03-01T04:30:58;2;1;
30342;PMS5003;17145;49.902;8.680;2023-03-01T04:33:29;1;1;
30342;PMS5003;17145;49.902;8.680;2023-03-01T04:35:57;1;1;
30342;PMS5003;17145;49.902;8.680;2023-03-01T04:38:24;1;1;
30342;PMS5003;17145;49.902;8.680;2023-03-01T04:40:51;1;1;
30342;PMS5003;17145;49.902;8.680;2023-03-01T04:43:19;1;1;
30342;PMS5003;17145;49.902;8.680;2023-03-01T04:45:46;2;2;
30342;PMS5003;17145;49.902;8.680;2023-03-01T04:48:14;2;2;
30342;PMS5003;17145;49.902;8.680;2023-03-01T04:50:41;1;1;
30342;PMS5003;17145;49.902;8.680;2023-03-01T04:53:08;3;2;
30342;PMS5003;17145;49.902;8.680;2023-03-01T04:55:36;1;1;
30342;PMS5003;17145;49.902;8.680;2023-03-01T04:58:04;1;1;
30342;PMS5003;17145;49.902;8.680;2023-03-01T05:00:31;2;1;
30342;PMS5003;17145;49.902;8.680;2023-03-01T05:02:59;5;1;
30342;PMS5003;17145;49.902;8.680;2023-03-01T05:05:28;2;2;
30342;PMS5003;17145;49.902;8.680;2023-03-01T05:07:59;1;1;
30342;PMS5003;17145;49.902;8.680;2023-03-01T05:10:29;3;3;
30342;PMS5003;17145;49.902;8.680;2023-03-01T05:12:57;2;2;
30342;PMS5003;17145;49.902;8.680;2023-03-01T05:15:26;1;1;
30342;PMS5003;17145;49.902;8.680;2023-03-01T05:17:56;5;2;
30342;PMS5003;17145;49.902;8.680;2023-03-01T05:20:25;1;1;
30342;PMS5003;17145;49.902;8.680;2023-03-01T05:22:54;3;2;
30342;PMS5003;17145;49.902;8.680;2023-03-01T05:25:24;1;1;
30342;PMS5003;17145;49.902;8.680;2023-03-01T05:27:51;1;1;
30342;PMS5003;17145;49.902;8.680;2023-03-01T05:30:19;3;2;
30342;PMS5003;17145;49.902;8.680;2023-03-01T05:32:47;3;3;
30342;PMS5003;17145;49.902;8.680;2023-03-01T05:35:16;1;1;
30342;PMS5003;17145;49.902;8.680;2023-03-01T05:37:45;5;2;
30342;PMS5003;17145;49.902;8.680;2023-03-01T05:40:15;3;3;
30342;PMS5003;17145;49.902;8.680;2023-03-01T05:42:45;5;3;
30342;PMS5003;17145;49.902;8.680;2023-03-01T05:45:14;5;3;
30342;PMS5003;17145;49.902;8.680;2023-03-01T05:47:43;5;5;
30342;PMS5003;17145;49.902;8.680;2023-03-01T05:50:13;7;7;
30342;PMS5003;17145;49.902;8.680;2023-03-01T05:52:42;7;7;
30342;PMS5003;17145;49.902;8.680;2023-03-01T05:55:10;7;7;
30342;PMS5003;17145;49.902;8.680;2023-03-01T05:57:37;11;11;
30342;PMS5003;17145;49.902;8.680;2023-03-01T06:00:05;24;22;
30342;PMS5003;17145;49.902;8.680;2023-03-01T06:02:33;2;2;
30342;PMS5003;17145;49.902;8.680;2023-03-01T06:05:00;2;2;
30342;PMS5003;17145;49.902;8.680;2023-03-01T06:07:28;4;4;
30342;PMS5003;17145;49.902;8.680;2023-03-01T06:09:55;1;1;
30342;PMS5003;17145;49.902;8.680;2023-03-01T06:12:22;2;2;
30342;PMS5003;17145;49.902;8.680;2023-03-01T06:14:50;4;2;
30342;PMS5003;17145;49.902;8.680;2023-03-01T06:17:18;4;2;
30342;PMS5003;17145;49.902;8.680;2023-03-01T06:19:46;2;2;
30342;PMS5003;17145;49.902;8.680;2023-03-01T06:22:13;4;2;
30342;PMS5003;17145;49.902;8.680;2023-03-01T06:24:40;4;2;
30342;PMS5003;17145;49.902;8.680;2023-03-01T06:27:08;4;4;
30342;PMS5003;17145;49.902;8.680;2023-03-01T06:29:35;4;4;
30342;PMS5003;17145;49.902;8.680;2023-03-01T06:32:03;2;2;
30342;PMS5003;17145;49.902;8.680;2023-03-01T06:34:30;2;2;
30342;PMS5003;17145;49.902;8.680;2023-03-01T06:36:58;2;2;
30342;PMS5003;17145;49.902;8.680;2023-03-01T06:39:27;2;2;
30342;PMS5003;17145;49.902;8.680;2023-03-01T06:41:54;2;2;
30342;PMS5003;17145;49.902;8.680;2023-03-01T06:44:21;1;1;
30342;PMS5003;17145;49.902;8.680;2023-03-01T06:46:49;1;1;
30342;PMS5003;17145;49.902;8.680;2023-03-01T06:49:16;1;1;
30342;PMS5003;17145;49.902;8.680;2023-03-01T06:51:44;2;2;
30342;PMS5003;17145;49.902;8.680;2023-03-01T06:54:11;2;2;
30342;PMS5003;17145;49.902;8.680;2023-03-01T06:56:39;1;1;
30342;PMS5003;17145;49.902;8.680;2023-03-01T06:59:06;4;2;
30342;PMS5003;17145;49.902;8.680;2023-03-01T07:01:34;1;1;
30342;PMS5003;17145;49.902;8.680;2023-03-01T07:04:02;2;2;
30342;PMS5003;17145;49.902;8.680;2023-03-01T07:06:29;2;2;
30342;PMS5003;17145;49.902;8.680;2023-03-01T07:08:57;2;2;
30342;PMS5003;17145;49.902;8.680;2023-03-01T07:11:24;1;1;
30342;PMS5003;17145;49.902;8.680;2023-03-01T07:13:51;1;1;
30342;PMS5003;17145;49.902;8.680;2023-03-01T07:16:19;4;2;
30342;PMS5003;17145;49.902;8.680;2023-03-01T07:18:46;2;2;
30342;PMS5003;17145;49.902;8.680;2023-03-01T07:21:14;2;2;
30342;PMS5003;17145;49.902;8.680;2023-03-01T07:23:42;2;2;
30342;PMS5003;17145;49.902;8.680;2023-03-01T07:26:13;2;2;
30342;PMS5003;17145;49.902;8.680;2023-03-01T07:28:41;2;2;
30342;PMS5003;17145;49.902;8.680;2023-03-01T07:31:08;4;4;
30342;PMS5003;17145;49.902;8.680;2023-03-01T07:33:36;2;2;
30342;PMS5003;17145;49.902;8.680;2023-03-01T07:36:04;2;2;
30342;PMS5003;17145;49.902;8.680;2023-03-01T07:38:32;4;2;
30342;PMS5003;17145;49.902;8.680;2023-03-01T07:41:01;2;2;
30342;PMS5003;17145;49.902;8.680;2023-03-01T07:43:30;2;2;
30342;PMS5003;17145;49.902;8.680;2023-03-01T07:45:58;2;2;
30342;PMS5003;17145;49.902;8.680;2023-03-01T07:48:26;2;2;
30342;PMS5003;17145;49.902;8.680;2023-03-01T07:50:53;2;2;
30342;PMS5003;17145;49.902;8.680;2023-03-01T07:53:21;4;4;
30342;PMS5003;17145;49.902;8.680;2023-03-01T07:55:48;2;2;
30342;PMS5003;17145;49.902;8.680;2023-03-01T07:58:15;2;2;
30342;PMS5003;17145;49.902;8.680;2023-03-01T08:00:43;1;1;
30342;PMS5003;17145;49.902;8.680;2023-03-01T08:03:10;1;1;
30342;PMS5003;17145;49.902;8.680;2023-03-01T08:05:37;2;2;
30342;PMS5003;17145;49.902;8.680;2023-03-01T08:08:05;2;2;
30342;PMS5003;17145;49.902;8.680;2023-03-01T08:10:32;4;4;
30342;PMS5003;17145;49.902;8.680;2023-03-01T08:13:00;2;2;
30342;PMS5003;17145;49.902;8.680;2023-03-01T08:15:28;4;2;
30342;PMS5003;17145;49.902;8.680;2023-03-01T08:17:55;2;2;
30342;PMS5003;17145;49.902;8.680;2023-03-01T08:20:23;2;2;
30342;PMS5003;17145;49.902;8.680;2023-03-01T08:22:50;2;2;
30342;PMS5003;17145;49.902;8.680;2023-03-01T08:25:19;2;2;
30342;PMS5003;17145;49.902;8.680;2023-03-01T08:27:47;4;4;
30342;PMS5003;17145;49.902;8.680;2023-03-01T08:30:15;5;4;
30342;PMS5003;17145;49.902;8.680;2023-03-01T08:32:42;4;4;
30342;PMS5003;17145;49.902;8.680;2023-03-01T08:35:10;5;4;
30342;PMS5003;17145;49.902;8.680;2023-03-01T08:37:38;2;2;
30342;PMS5003;17145;49.902;8.680;2023-03-01T08:40:06;2;2;
30342;PMS5003;17145;49.902;8.680;2023-03-01T08:42:35;4;2;
30342;PMS5003;17145;49.902;8.680;2023-03-01T08:45:03;4;2;
30342;PMS5003;17145;49.902;8.680;2023-03-01T08:47:31;2;2;
30342;PMS5003;17145;49.902;8.680;2023-03-01T08:50:00;4;4;
30342;PMS5003;17145;49.902;8.680;2023-03-01T08:52:28;4;4;
30342;PMS5003;17145;49.902;8.680;2023-03-01T08:54:56;2;2;
30342;PMS5003;17145;49.902;8.680;2023-03-01T08:57:23;4;2;
30342;PMS5003;17145;49.902;8.680;2023-03-01T08:59:52;4;2;
30342;PMS5003;17145;49.902;8.680;2023-03-01T09:02:20;5;4;
30342;PMS5003;17145;49.902;8.680;2023-03-01T09:04:49;2;2;
30342;PMS5003;17145;49.902;8.680;2023-03-01T09:07:17;5;4;
30342;PMS5003;17145;49.902;8.680;2023-03-01T09:09:46;4;4;
30342;PMS5003;17145;49.902;8.680;2023-03-01T09:12:15;2;2;
30342;PMS5003;17145;49.902;8.680;2023-03-01T09:14:43;8;5;
30342;PMS5003;17145;49.902;8.680;2023-03-01T09:17:11;8;6;
30342;PMS5003;17145;49.902;8.680;2023-03-01T09:19:39;6;5;
30342;PMS5003;17145;49.902;8.680;2023-03-01T09:22:06;6;5;
30342;PMS5003;17145;49.902;8.680;2023-03-01T09:24:34;6;5;
30342;PMS5003;17145;49.902;8.680;2023-03-01T09:27:01;9;6;
30342;PMS5003;17145;49.902;8.680;2023-03-01T09:29:29;8;6;
30342;PMS5003;17145;49.902;8.680;2023-03-01T09:31:57;9;8;
30342;PMS5003;17145;49.902;8.680;2023-03-01T09:34:24;10;9;
30342;PMS5003;17145;49.902;8.680;2023-03-01T09:36:52;10;8;
30342;PMS5003;17145;49.902;8.680;2023-03-01T09:39:20;9;8;
30342;PMS5003;17145;49.902;8.680;2023-03-01T09:41:49;5;5;
30342;PMS5003;17145;49.902;8.680;2023-03-01T09:44:26;9;8;
30342;PMS5003;17145;49.902;8.680;2023-03-01T09:46:58;8;8;
30342;PMS5003;17145;49.902;8.680;2023-03-01T09:49:27;6;5;
30342;PMS5003;17145;49.902;8.680;2023-03-01T09:51:58;6;5;
30342;PMS5003;17145;49.902;8.680;2023-03-01T09:54:30;9;6;
30342;PMS5003;17145;49.902;8.680;2023-03-01T09:57:01;9;9;
30342;PMS5003;17145;49.902;8.680;2023-03-01T09:59:40;5;5;
30342;PMS5003;17145;49.902;8.680;2023-03-01T10:02:22;9;6;
30342;PMS5003;17145;49.902;8.680;2023-03-01T10:04:57;8;8;
30342;PMS5003;17145;49.902;8.680;2023-03-01T10:07:33;8;8;
30342;PMS5003;17145;49.902;8.680;2023-03-01T10:10:14;8;6;
30342;PMS5003;17145;49.902;8.680;2023-03-01T10:12:48;6;5;
30342;PMS5003;17145;49.902;8.680;2023-03-01T10:15:18;21;21;
30342;PMS5003;17145;49.902;8.680;2023-03-01T10:17:50;6;6;
30342;PMS5003;17145;49.902;8.680;2023-03-01T10:20:25;9;8;
30342;PMS5003;17145;49.902;8.680;2023-03-01T10:22:56;6;6;
30342;PMS5003;17145;49.902;8.680;2023-03-01T10:25:31;8;6;
30342;PMS5003;17145;49.902;8.680;2023-03-01T10:28:10;8;6;
30342;PMS5003;17145;49.902;8.680;2023-03-01T10:30:43;11;8;
30342;PMS5003;17145;49.902;8.680;2023-03-01T10:33:15;12;9;
30342;PMS5003;17145;49.902;8.680;2023-03-01T10:35:47;9;9;
30342;PMS5003;17145;49.902;8.680;2023-03-01T10:38:15;9;8;
30342;PMS5003;17145;49.902;8.680;2023-03-01T10:40:50;9;9;
30342;PMS5003;17145;49.902;8.680;2023-03-01T10:43:20;12;12;
30342;PMS5003;17145;49.902;8.680;2023-03-01T10:45:49;9;9;
30342;PMS5003;17145;49.902;8.680;2023-03-01T10:48:17;11;9;
30342;PMS5003;17145;49.902;8.680;2023-03-01T10:50:47;11;9;
30342;PMS5003;17145;49.902;8.680;2023-03-01T10:53:25;12;12;
30342;PMS5003;17145;49.902;8.680;2023-03-01T10:55:57;12;12;
30342;PMS5003;17145;49.902;8.680;2023-03-01T10:58:27;15;15;
30342;PMS5003;17145;49.902;8.680;2023-03-01T11:00:57;19;16;
30342;PMS5003;17145;49.902;8.680;2023-03-01T11:03:26;16;15;
30342;PMS5003;17145;49.902;8.680;2023-03-01T11:05:57;13;10;
30342;PMS5003;17145;49.902;8.680;2023-03-01T11:08:37;13;12;
30342;PMS5003;17145;49.902;8.680;2023-03-01T11:11:12;13;12;
30342;PMS5003;17145;49.902;8.680;2023-03-01T11:13:50;16;15;
30342;PMS5003;17145;49.902;8.680;2023-03-01T11:16:25;18;15;
30342;PMS5003;17145;49.902;8.680;2023-03-01T11:18:57;20;16;
30342;PMS5003;17145;49.902;8.680;2023-03-01T11:21:28;22;18;
30342;PMS5003;17145;49.902;8.680;2023-03-01T11:24:00;19;18;
30342;PMS5003;17145;49.902;8.680;2023-03-01T11:26:31;18;16;
30342;PMS5003;17145;49.902;8.680;2023-03-01T11:29:07;16;16;
30342;PMS5003;17145;49.902;8.680;2023-03-01T11:31:44;13;13;
30342;PMS5003;17145;49.902;8.680;2023-03-01T11:34:14;13;13;
30342;PMS5003;17145;49.902;8.680;2023-03-01T11:36:51;18;15;
30342;PMS5003;17145;49.902;8.680;2023-03-01T11:39:28;26;18;
30342;PMS5003;17145;49.902;8.680;2023-03-01T11:42:00;16;15;
30342;PMS5003;17145;49.902;8.680;2023-03-01T11:44:33;15;15;
30342;PMS5003;17145;49.902;8.680;2023-03-01T11:47:08;13;12;
30342;PMS5003;17145;49.902;8.680;2023-03-01T11:49:51;20;20;
30342;PMS5003;17145;49.902;8.680;2023-03-01T11:52:31;16;16;
30342;PMS5003;17145;49.902;8.680;2023-03-01T11:55:12;16;16;
30342;PMS5003;17145;49.902;8.680;2023-03-01T11:57:55;18;15;
30342;PMS5003;17145;49.902;8.680;2023-03-01T12:00:39;19;18;
30342;PMS5003;17145;49.902;8.680;2023-03-01T12:03:27;22;16;
30342;PMS5003;17145;49.902;8.680;2023-03-01T12:06:02;19;18;
30342;PMS5003;17145;49.902;8.680;2023-03-01T12:08:45;21;18;
30342;PMS5003;17145;49.902;8.680;2023-03-01T12:11:26;24;19;
30342;PMS5003;17145;49.902;8.680;2023-03-01T12:14:13;22;18;
30342;PMS5003;17145;49.902;8.680;2023-03-01T12:16:58;18;15;
30342;PMS5003;17145;49.902;8.680;2023-03-01T12:19:38;18;16;
30342;PMS5003;17145;49.902;8.680;2023-03-01T12:22:21;19;19;
30342;PMS5003;17145;49.902;8.680;2023-03-01T12:25:00;20;18;
30342;PMS5003;17145;49.902;8.680;2023-03-01T12:27:43;29;18;
30342;PMS5003;17145;49.902;8.680;2023-03-01T12:30:25;23;21;
30342;PMS5003;17145;49.902;8.680;2023-03-01T12:33:05;22;19;
30342;PMS5003;17145;49.902;8.680;2023-03-01T12:35:47;15;15;
30342;PMS5003;17145;49.902;8.680;2023-03-01T12:41:08;19;16;
30342;PMS5003;17145;49.902;8.680;2023-03-01T12:43:47;16;15;
30342;PMS5003;17145;49.902;8.680;2023-03-01T12:46:28;22;18;
30342;PMS5003;17145;49.902;8.680;2023-03-01T12:49:08;16;16;
30342;PMS5003;17145;49.902;8.680;2023-03-01T12:51:39;14;14;
30342;PMS5003;17145;49.902;8.680;2023-03-01T12:54:15;19;16;
30342;PMS5003;17145;49.902;8.680;2023-03-01T12:56:47;19;18;
30342;PMS5003;17145;49.902;8.680;2023-03-01T12:59:17;18;16;
30342;PMS5003;17145;49.902;8.680;2023-03-01T13:01:51;18;16;
30342;PMS5003;17145;49.902;8.680;2023-03-01T13:04:28;14;14;
30342;PMS5003;17145;49.902;8.680;2023-03-01T13:09:43;19;15;
30342;PMS5003;17145;49.902;8.680;2023-03-01T13:17:49;21;16;
30342;PMS5003;17145;49.902;8.680;2023-03-01T13:20:23;18;16;
30342;PMS5003;17145;49.902;8.680;2023-03-01T13:23:00;14;14;
30342;PMS5003;17145;49.902;8.680;2023-03-01T13:25:31;16;14;
30342;PMS5003;17145;49.902;8.680;2023-03-01T13:30:44;18;15;
30342;PMS5003;17145;49.902;8.680;2023-03-01T13:36:05;15;14;
30342;PMS5003;17145;49.902;8.680;2023-03-01T13:38:39;11;11;
30342;PMS5003;17145;49.902;8.680;2023-03-01T13:41:14;12;12;
30342;PMS5003;17145;49.902;8.680;2023-03-01T13:43:44;15;15;
30342;PMS5003;17145;49.902;8.680;2023-03-01T13:46:16;14;11;
30342;PMS5003;17145;49.902;8.680;2023-03-01T13:48:47;16;14;
30342;PMS5003;17145;49.902;8.680;2023-03-01T13:51:20;12;12;
30342;PMS5003;17145;49.902;8.680;2023-03-01T13:53:50;14;12;
30342;PMS5003;17145;49.902;8.680;2023-03-01T13:56:21;11;11;
30342;PMS5003;17145;49.902;8.680;2023-03-01T13:58:54;14;9;
30342;PMS5003;17145;49.902;8.680;2023-03-01T14:01:29;11;11;
30342;PMS5003;17145;49.902;8.680;2023-03-01T14:03:58;22;12;
30342;PMS5003;17145;49.902;8.680;2023-03-01T14:06:27;12;11;
30342;PMS5003;17145;49.902;8.680;2023-03-01T14:09:01;12;11;
30342;PMS5003;17145;49.902;8.680;2023-03-01T14:11:41;12;12;
30342;PMS5003;17145;49.902;8.680;2023-03-01T14:19:59;11;9;
30342;PMS5003;17145;49.902;8.680;2023-03-01T14:22:30;12;11;
30342;PMS5003;17145;49.902;8.680;2023-03-01T14:25:01;11;9;
30342;PMS5003;17145;49.902;8.680;2023-03-01T14:27:33;9;8;
30342;PMS5003;17145;49.902;8.680;2023-03-01T14:30:09;11;11;
30342;PMS5003;17145;49.902;8.680;2023-03-01T14:32:39;9;8;
30342;PMS5003;17145;49.902;8.680;2023-03-01T14:37:44;12;9;
30342;PMS5003;17145;49.902;8.680;2023-03-01T14:42:50;11;11;
30342;PMS5003;17145;49.902;8.680;2023-03-01T14:45:20;12;9;
30342;PMS5003;17145;49.902;8.680;2023-03-01T14:47:47;9;9;
30342;PMS5003;17145;49.902;8.680;2023-03-01T14:50:18;9;9;
30342;PMS5003;17145;49.902;8.680;2023-03-01T14:52:50;12;11;
30342;PMS5003;17145;49.902;8.680;2023-03-01T14:55:22;8;8;
30342;PMS5003;17145;49.902;8.680;2023-03-01T14:57:55;11;11;
30342;PMS5003;17145;49.902;8.680;2023-03-01T15:00:26;11;9;
30342;PMS5003;17145;49.902;8.680;2023-03-01T15:02:56;11;9;
30342;PMS5003;17145;49.902;8.680;2023-03-01T15:05:28;9;7;
30342;PMS5003;17145;49.902;8.680;2023-03-01T15:07:58;8;8;
30342;PMS5003;17145;49.902;8.680;2023-03-01T15:10:28;9;8;
30342;PMS5003;17145;49.902;8.680;2023-03-01T15:15:38;12;11;
30342;PMS5003;17145;49.902;8.680;2023-03-01T15:18:16;7;7;
30342;PMS5003;17145;49.902;8.680;2023-03-01T15:20:45;6;6;
30342;PMS5003;17145;49.902;8.680;2023-03-01T15:23:18;9;9;
30342;PMS5003;17145;49.902;8.680;2023-03-01T15:25:49;8;8;
30342;PMS5003;17145;49.902;8.680;2023-03-01T15:28:18;9;9;
30342;PMS5003;17145;49.902;8.680;2023-03-01T15:30:51;11;9;
30342;PMS5003;17145;49.902;8.680;2023-03-01T15:33:31;11;11;
30342;PMS5003;17145;49.902;8.680;2023-03-01T15:36:02;9;9;
30342;PMS5003;17145;49.902;8.680;2023-03-01T15:38:36;11;9;
30342;PMS5003;17145;49.902;8.680;2023-03-01T15:43:46;9;8;
30342;PMS5003;17145;49.902;8.680;2023-03-01T15:46:17;9;9;
30342;PMS5003;17145;49.902;8.680;2023-03-01T15:48:48;11;9;
30342;PMS5003;17145;49.902;8.680;2023-03-01T15:51:20;11;9;
30342;PMS5003;17145;49.902;8.680;2023-03-01T15:53:53;11;11;
30342;PMS5003;17145;49.902;8.680;2023-03-01T15:56:21;14;8;
30342;PMS5003;17145;49.902;8.680;2023-03-01T15:58:49;9;9;
30342;PMS5003;17145;49.902;8.680;2023-03-01T16:01:16;10;8;
30342;PMS5003;17145;49.902;8.680;2023-03-01T16:03:45;8;8;
30342;PMS5003;17145;49.902;8.680;2023-03-01T16:06:12;7;7;
30342;PMS5003;17145;49.902;8.680;2023-03-01T16:08:40;8;8;
30342;PMS5003;17145;49.902;8.680;2023-03-01T16:11:11;8;7;
30342;PMS5003;17145;49.902;8.680;2023-03-01T16:13:42;8;8;
30342;PMS5003;17145;49.902;8.680;2023-03-01T16:16:10;7;7;
30342;PMS5003;17145;49.902;8.680;2023-03-01T16:18:38;8;8;
30342;PMS5003;17145;49.902;8.680;2023-03-01T16:21:06;7;7;
30342;PMS5003;17145;49.902;8.680;2023-03-01T16:23:37;8;7;
30342;PMS5003;17145;49.902;8.680;2023-03-01T16:26:05;7;7;
30342;PMS5003;17145;49.902;8.680;2023-03-01T16:28:32;7;7;
30342;PMS5003;17145;49.902;8.680;2023-03-01T16:31:00;7;5;
30342;PMS5003;17145;49.902;8.680;2023-03-01T16:33:28;8;8;
30342;PMS5003;17145;49.902;8.680;2023-03-01T16:35:55;8;8;
30342;PMS5003;17145;49.902;8.680;2023-03-01T16:38:23;7;7;
30342;PMS5003;17145;49.902;8.680;2023-03-01T16:40:51;7;5;
30342;PMS5003;17145;49.902;8.680;2023-03-01T16:43:19;7;7;
30342;PMS5003;17145;49.902;8.680;2023-03-01T16:45:47;7;7;
30342;PMS5003;17145;49.902;8.680;2023-03-01T16:48:16;5;5;
30342;PMS5003;17145;49.902;8.680;2023-03-01T16:50:44;5;5;
30342;PMS5003;17145;49.902;8.680;2023-03-01T16:53:11;5;5;
30342;PMS5003;17145;49.902;8.680;2023-03-01T16:55:39;8;5;
30342;PMS5003;17145;49.902;8.680;2023-03-01T16:58:08;5;5;
30342;PMS5003;17145;49.902;8.680;2023-03-01T17:00:36;5;5;
30342;PMS5003;17145;49.902;8.680;2023-03-01T17:03:04;5;5;
30342;PMS5003;17145;49.902;8.680;2023-03-01T17:05:31;7;5;
30342;PMS5003;17145;49.902;8.680;2023-03-01T17:07:59;7;5;
30342;PMS5003;17145;49.902;8.680;2023-03-01T17:10:27;5;5;
30342;PMS5003;17145;49.902;8.680;2023-03-01T17:12:54;7;7;
30342;PMS5003;17145;49.902;8.680;2023-03-01T17:15:22;7;7;
30342;PMS5003;17145;49.902;8.680;2023-03-01T17:17:49;10;8;
30342;PMS5003;17145;49.902;8.680;2023-03-01T17:20:17;10;8;
30342;PMS5003;17145;49.902;8.680;2023-03-01T17:22:46;7;7;
30342;PMS5003;17145;49.902;8.680;2023-03-01T17:25:19;7;5;
30342;PMS5003;17145;49.902;8.680;2023-03-01T17:27:46;5;5;
30342;PMS5003;17145;49.902;8.680;2023-03-01T17:30:15;8;7;
30342;PMS5003;17145;49.902;8.680;2023-03-01T17:32:44;8;7;
30342;PMS5003;17145;49.902;8.680;2023-03-01T17:35:12;7;5;
30342;PMS5003;17145;49.902;8.680;2023-03-01T17:37:40;8;8;